sensor_id;sensor_type;location;lat;lon;timestamp;temperature;humidity
15930;DHT22;8064;51.142;4.780;2022-09-24T00:00:43;15.00;99.90
15930;DHT22;8064;51.142;4.780;2022-09-24T00:03:10;15.00;99.90
15930;DHT22;8064;51.142;4.780;2022-09-24T00:05:39;15.00;99.90
15930;DHT22;8064;51.142;4.780;2022-09-24T00:08:06;15.00;99.90
15930;DHT22;8064;51.142;4.780;2022-09-24T00:10:39;15.00;99.90
15930;DHT22;8064;51.142;4.780;2022-09-24T00:13:07;15.00;99.90
15930;DHT22;8064;51.142;4.780;2022-09-24T00:15:37;15.00;99.90
15930;DHT22;8064;51.142;4.780;2022-09-24T00:18:04;15.00;99.90
15930;DHT22;8064;51.142;4.780;2022-09-24T00:20:30;15.00;99.90
15930;DHT22;8064;51.142;4.780;2022-09-24T00:22:58;15.00;99.90
15930;DHT22;8064;51.142;4.780;2022-09-24T00:25:24;15.00;99.90
15930;DHT22;8064;51.142;4.780;2022-09-24T00:28:08;15.00;99.90
15930;DHT22;8064;51.142;4.780;2022-09-24T00:30:37;15.00;99.90
15930;DHT22;8064;51.142;4.780;2022-09-24T00:33:03;15.00;99.90
15930;DHT22;8064;51.142;4.780;2022-09-24T00:35:31;15.00;99.90
15930;DHT22;8064;51.142;4.780;2022-09-24T00:37:57;15.10;99.90
15930;DHT22;8064;51.142;4.780;2022-09-24T00:40:34;15.10;99.90
15930;DHT22;8064;51.142;4.780;2022-09-24T00:43:00;15.10;99.90
15930;DHT22;8064;51.142;4.780;2022-09-24T00:45:28;15.00;99.90
15930;DHT22;8064;51.142;4.780;2022-09-24T00:47:57;15.00;99.90
15930;DHT22;8064;51.142;4.780;2022-09-24T00:50:31;15.10;99.90
15930;DHT22;8064;51.142;4.780;2022-09-24T00:53:04;15.00;99.90
15930;DHT22;8064;51.142;4.780;2022-09-24T00:55:34;15.00;99.90
15930;DHT22;8064;51.142;4.780;2022-09-24T00:58:04;15.00;99.90
15930;DHT22;8064;51.142;4.780;2022-09-24T01:00:31;15.00;99.90
15930;DHT22;8064;51.142;4.780;2022-09-24T01:03:03;15.00;99.90
15930;DHT22;8064;51.142;4.780;2022-09-24T01:05:30;15.00;99.90
15930;DHT22;8064;51.142;4.780;2022-09-24T01:07:56;15.00;99.90
15930;DHT22;8064;51.142;4.780;2022-09-24T01:21:44;14.90;99.90
15930;DHT22;8064;51.142;4.780;2022-09-24T01:27:20;14.90;99.90
15930;DHT22;8064;51.142;4.780;2022-09-24T01:35:35;14.90;99.90
15930;DHT22;8064;51.142;4.780;2022-09-24T01:38:24;14.90;99.90
15930;DHT22;8064;51.142;4.780;2022-09-24T01:40:52;14.90;99.90
15930;DHT22;8064;51.142;4.780;2022-09-24T01:43:24;14.80;99.90
15930;DHT22;8064;51.142;4.780;2022-09-24T01:45:51;14.80;99.90
15930;DHT22;8064;51.142;4.780;2022-09-24T01:48:17;14.80;99.90
15930;DHT22;8064;51.142;4.780;2022-09-24T01:56:33;14.70;99.90
15930;DHT22;8064;51.142;4.780;2022-09-24T01:59:13;14.70;99.90
15930;DHT22;8064;51.142;4.780;2022-09-24T02:01:47;14.70;99.90
15930;DHT22;8064;51.142;4.780;2022-09-24T02:04:17;14.60;99.90
15930;DHT22;8064;51.142;4.780;2022-09-24T02:07:06;14.60;99.90
15930;DHT22;8064;51.142;4.780;2022-09-24T02:09:41;14.60;99.90
15930;DHT22;8064;51.142;4.780;2022-09-24T02:12:11;14.60;99.90
15930;DHT22;8064;51.142;4.780;2022-09-24T02:15:09;14.60;99.90
15930;DHT22;8064;51.142;4.780;2022-09-24T02:17:36;14.60;99.90
15930;DHT22;8064;51.142;4.780;2022-09-24T02:20:10;14.60;99.90
15930;DHT22;8064;51.142;4.780;2022-09-24T02:22:38;14.60;99.90
15930;DHT22;8064;51.142;4.780;2022-09-24T02:25:08;14.50;99.90
15930;DHT22;8064;51.142;4.780;2022-09-24T02:27:35;14.50;99.90
15930;DHT22;8064;51.142;4.780;2022-09-24T02:30:01;14.50;99.90
15930;DHT22;8064;51.142;4.780;2022-09-24T02:32:31;14.50;99.90
15930;DHT22;8064;51.142;4.780;2022-09-24T02:35:01;14.50;99.90
15930;DHT22;8064;51.142;4.780;2022-09-24T02:37:27;14.50;99.90
15930;DHT22;8064;51.142;4.780;2022-09-24T02:39:54;14.50;99.90
15930;DHT22;8064;51.142;4.780;2022-09-24T02:42:21;14.50;99.90
15930;DHT22;8064;51.142;4.780;2022-09-24T02:44:47;14.50;99.90
15930;DHT22;8064;51.142;4.780;2022-09-24T02:47:14;14.50;99.90
15930;DHT22;8064;51.142;4.780;2022-09-24T02:49:40;14.50;99.90
15930;DHT22;8064;51.142;4.780;2022-09-24T02:52:05;14.50;99.90
15930;DHT22;8064;51.142;4.780;2022-09-24T02:54:31;14.50;99.90
15930;DHT22;8064;51.142;4.780;2022-09-24T02:56:57;14.50;99.90
15930;DHT22;8064;51.142;4.780;2022-09-24T02:59:22;14.40;99.90
15930;DHT22;8064;51.142;4.780;2022-09-24T03:01:48;14.40;99.90
15930;DHT22;8064;51.142;4.780;2022-09-24T03:04:15;14.40;99.90
15930;DHT22;8064;51.142;4.780;2022-09-24T03:06:41;14.40;99.90
15930;DHT22;8064;51.142;4.780;2022-09-24T03:09:09;14.40;99.90
15930;DHT22;8064;51.142;4.780;2022-09-24T03:11:36;14.30;99.90
15930;DHT22;8064;51.142;4.780;2022-09-24T03:14:01;14.30;99.90
15930;DHT22;8064;51.142;4.780;2022-09-24T03:16:27;14.30;99.90
15930;DHT22;8064;51.142;4.780;2022-09-24T03:18:53;14.30;99.90
15930;DHT22;8064;51.142;4.780;2022-09-24T03:21:20;14.30;99.90
15930;DHT22;8064;51.142;4.780;2022-09-24T03:23:46;14.30;99.90
15930;DHT22;8064;51.142;4.780;2022-09-24T03:26:12;14.30;99.90
15930;DHT22;8064;51.142;4.780;2022-09-24T03:28:38;14.30;99.90
15930;DHT22;8064;51.142;4.780;2022-09-24T03:31:05;14.30;99.90
15930;DHT22;8064;51.142;4.780;2022-09-24T03:33:40;14.30;99.90
15930;DHT22;8064;51.142;4.780;2022-09-24T03:36:25;14.30;99.90
15930;DHT22;8064;51.142;4.780;2022-09-24T03:38:54;14.30;99.90
15930;DHT22;8064;51.142;4.780;2022-09-24T03:41:21;14.30;99.90
15930;DHT22;8064;51.142;4.780;2022-09-24T03:43:47;14.30;99.90
15930;DHT22;8064;51.142;4.780;2022-09-24T03:46:13;14.30;99.90
15930;DHT22;8064;51.142;4.780;2022-09-24T03:48:42;14.30;99.90
15930;DHT22;8064;51.142;4.780;2022-09-24T03:51:11;14.20;99.90
15930;DHT22;8064;51.142;4.780;2022-09-24T03:53:37;14.20;99.90
15930;DHT22;8064;51.142;4.780;2022-09-24T03:56:04;14.20;99.90
15930;DHT22;8064;51.142;4.780;2022-09-24T03:58:31;14.20;99.90
15930;DHT22;8064;51.142;4.780;2022-09-24T04:00:59;14.20;99.90
15930;DHT22;8064;51.142;4.780;2022-09-24T04:03:25;14.20;99.90
15930;DHT22;8064;51.142;4.780;2022-09-24T04:05:50;14.20;99.90
15930;DHT22;8064;51.142;4.780;2022-09-24T04:08:20;14.20;99.90
15930;DHT22;8064;51.142;4.780;2022-09-24T04:10:47;14.20;99.90
15930;DHT22;8064;51.142;4.780;2022-09-24T04:13:14;14.10;99.90
15930;DHT22;8064;51.142;4.780;2022-09-24T04:15:40;14.10;99.90
15930;DHT22;8064;51.142;4.780;2022-09-24T04:18:06;14.10;99.90
15930;DHT22;8064;51.142;4.780;2022-09-24T04:20:31;14.10;99.90
15930;DHT22;8064;51.142;4.780;2022-09-24T04:22:58;14.10;99.90
15930;DHT22;8064;51.142;4.780;2022-09-24T04:25:26;14.10;99.90
15930;DHT22;8064;51.142;4.780;2022-09-24T04:27:56;14.20;99.90
15930;DHT22;8064;51.142;4.780;2022-09-24T04:30:23;14.20;99.90
15930;DHT22;8064;51.142;4.780;2022-09-24T04:32:50;14.20;99.90
15930;DHT22;8064;51.142;4.780;2022-09-24T04:35:21;14.20;99.90
15930;DHT22;8064;51.142;4.780;2022-09-24T04:37:48;14.20;99.90
15930;DHT22;8064;51.142;4.780;2022-09-24T04:40:14;14.20;99.90
15930;DHT22;8064;51.142;4.780;2022-09-24T04:42:41;14.20;99.90
15930;DHT22;8064;51.142;4.780;2022-09-24T04:45:08;14.30;99.90
15930;DHT22;8064;51.142;4.780;2022-09-24T04:47:35;14.30;99.90
15930;DHT22;8064;51.142;4.780;2022-09-24T04:50:02;14.30;99.90
15930;DHT22;8064;51.142;4.780;2022-09-24T04:52:31;14.30;99.90
15930;DHT22;8064;51.142;4.780;2022-09-24T04:55:01;14.30;99.90
15930;DHT22;8064;51.142;4.780;2022-09-24T04:57:27;14.30;99.90
15930;DHT22;8064;51.142;4.780;2022-09-24T04:59:54;14.30;99.90
15930;DHT22;8064;51.142;4.780;2022-09-24T05:02:19;14.30;99.90
15930;DHT22;8064;51.142;4.780;2022-09-24T05:04:45;14.30;99.90
15930;DHT22;8064;51.142;4.780;2022-09-24T05:07:11;14.30;99.90
15930;DHT22;8064;51.142;4.780;2022-09-24T05:09:37;14.30;99.90
15930;DHT22;8064;51.142;4.780;2022-09-24T05:12:04;14.30;99.90
15930;DHT22;8064;51.142;4.780;2022-09-24T05:14:29;14.30;99.90
15930;DHT22;8064;51.142;4.780;2022-09-24T05:16:56;14.30;99.90
15930;DHT22;8064;51.142;4.780;2022-09-24T05:19:22;14.30;99.90
15930;DHT22;8064;51.142;4.780;2022-09-24T05:21:48;14.30;99.90
15930;DHT22;8064;51.142;4.780;2022-09-24T05:24:13;14.30;99.90
15930;DHT22;8064;51.142;4.780;2022-09-24T05:26:39;14.30;99.90
15930;DHT22;8064;51.142;4.780;2022-09-24T05:29:24;14.30;99.90
15930;DHT22;8064;51.142;4.780;2022-09-24T05:31:50;14.30;99.90
15930;DHT22;8064;51.142;4.780;2022-09-24T05:34:15;14.30;99.90
15930;DHT22;8064;51.142;4.780;2022-09-24T05:36:41;14.30;99.90
15930;DHT22;8064;51.142;4.780;2022-09-24T05:39:08;14.30;99.90
15930;DHT22;8064;51.142;4.780;2022-09-24T05:41:36;14.30;99.90
15930;DHT22;8064;51.142;4.780;2022-09-24T05:44:02;14.30;99.90
15930;DHT22;8064;51.142;4.780;2022-09-24T05:46:28;14.30;99.90
15930;DHT22;8064;51.142;4.780;2022-09-24T05:48:54;14.30;99.90
15930;DHT22;8064;51.142;4.780;2022-09-24T05:51:20;14.30;99.90
15930;DHT22;8064;51.142;4.780;2022-09-24T05:53:46;14.30;99.90
15930;DHT22;8064;51.142;4.780;2022-09-24T05:56:11;14.30;99.90
15930;DHT22;8064;51.142;4.780;2022-09-24T05:58:37;14.30;99.90
15930;DHT22;8064;51.142;4.780;2022-09-24T06:01:03;14.30;99.90
15930;DHT22;8064;51.142;4.780;2022-09-24T06:03:29;14.40;99.90
15930;DHT22;8064;51.142;4.780;2022-09-24T06:05:56;14.40;99.90
15930;DHT22;8064;51.142;4.780;2022-09-24T06:08:27;14.40;99.90
15930;DHT22;8064;51.142;4.780;2022-09-24T06:11:00;14.40;99.90
15930;DHT22;8064;51.142;4.780;2022-09-24T06:13:27;14.40;99.90
15930;DHT22;8064;51.142;4.780;2022-09-24T06:16:01;14.40;99.90
15930;DHT22;8064;51.142;4.780;2022-09-24T06:18:27;14.50;99.90
15930;DHT22;8064;51.142;4.780;2022-09-24T06:20:53;14.50;99.90
15930;DHT22;8064;51.142;4.780;2022-09-24T06:23:19;14.50;99.90
15930;DHT22;8064;51.142;4.780;2022-09-24T06:25:49;14.50;99.90
15930;DHT22;8064;51.142;4.780;2022-09-24T06:28:15;14.50;99.90
15930;DHT22;8064;51.142;4.780;2022-09-24T06:30:41;14.50;99.90
15930;DHT22;8064;51.142;4.780;2022-09-24T06:33:10;14.50;99.90
15930;DHT22;8064;51.142;4.780;2022-09-24T06:35:37;14.50;99.90
15930;DHT22;8064;51.142;4.780;2022-09-24T06:38:04;14.50;99.90
15930;DHT22;8064;51.142;4.780;2022-09-24T06:40:30;14.50;99.90
15930;DHT22;8064;51.142;4.780;2022-09-24T06:42:56;14.60;99.90
15930;DHT22;8064;51.142;4.780;2022-09-24T06:45:23;14.60;99.90
15930;DHT22;8064;51.142;4.780;2022-09-24T06:47:53;14.60;99.90
15930;DHT22;8064;51.142;4.780;2022-09-24T06:50:20;14.60;99.90
15930;DHT22;8064;51.142;4.780;2022-09-24T06:52:47;14.60;99.90
15930;DHT22;8064;51.142;4.780;2022-09-24T06:55:13;14.60;99.90
15930;DHT22;8064;51.142;4.780;2022-09-24T06:57:39;14.60;99.90
15930;DHT22;8064;51.142;4.780;2022-09-24T07:00:06;14.60;99.90
15930;DHT22;8064;51.142;4.780;2022-09-24T07:02:32;14.60;99.90
15930;DHT22;8064;51.142;4.780;2022-09-24T07:04:58;14.60;99.90
15930;DHT22;8064;51.142;4.780;2022-09-24T07:07:23;14.60;99.90
15930;DHT22;8064;51.142;4.780;2022-09-24T07:09:58;14.60;99.90
15930;DHT22;8064;51.142;4.780;2022-09-24T07:12:24;14.70;99.90
15930;DHT22;8064;51.142;4.780;2022-09-24T07:14:50;14.70;99.90
15930;DHT22;8064;51.142;4.780;2022-09-24T07:17:16;14.70;99.90
15930;DHT22;8064;51.142;4.780;2022-09-24T07:19:42;14.70;99.90
15930;DHT22;8064;51.142;4.780;2022-09-24T07:22:08;14.70;99.90
15930;DHT22;8064;51.142;4.780;2022-09-24T07:24:33;14.80;99.90
15930;DHT22;8064;51.142;4.780;2022-09-24T07:26:59;14.80;99.90
15930;DHT22;8064;51.142;4.780;2022-09-24T07:29:25;14.80;99.90
15930;DHT22;8064;51.142;4.780;2022-09-24T07:31:51;14.70;99.90
15930;DHT22;8064;51.142;4.780;2022-09-24T07:34:16;14.70;99.90
15930;DHT22;8064;51.142;4.780;2022-09-24T07:36:42;14.70;99.90
15930;DHT22;8064;51.142;4.780;2022-09-24T07:39:08;14.70;99.90
15930;DHT22;8064;51.142;4.780;2022-09-24T07:41:34;14.70;99.90
15930;DHT22;8064;51.142;4.780;2022-09-24T07:44:00;14.70;99.90
15930;DHT22;8064;51.142;4.780;2022-09-24T07:46:26;14.60;99.90
15930;DHT22;8064;51.142;4.780;2022-09-24T07:48:52;14.60;99.90
15930;DHT22;8064;51.142;4.780;2022-09-24T07:51:21;14.60;99.90
15930;DHT22;8064;51.142;4.780;2022-09-24T07:53:47;14.60;99.90
15930;DHT22;8064;51.142;4.780;2022-09-24T07:56:13;14.60;99.90
15930;DHT22;8064;51.142;4.780;2022-09-24T07:58:39;14.60;99.90
15930;DHT22;8064;51.142;4.780;2022-09-24T08:01:05;14.60;99.90
15930;DHT22;8064;51.142;4.780;2022-09-24T08:03:31;14.60;99.90
15930;DHT22;8064;51.142;4.780;2022-09-24T08:05:57;14.60;99.90
15930;DHT22;8064;51.142;4.780;2022-09-24T08:08:24;14.60;99.90
15930;DHT22;8064;51.142;4.780;2022-09-24T08:10:50;14.70;99.90
15930;DHT22;8064;51.142;4.780;2022-09-24T08:13:16;14.70;99.90
15930;DHT22;8064;51.142;4.780;2022-09-24T08:15:42;14.70;99.90
15930;DHT22;8064;51.142;4.780;2022-09-24T08:18:09;14.70;99.90
15930;DHT22;8064;51.142;4.780;2022-09-24T08:20:38;14.70;99.90
15930;DHT22;8064;51.142;4.780;2022-09-24T08:23:09;14.70;99.90
15930;DHT22;8064;51.142;4.780;2022-09-24T08:25:36;14.80;99.90
15930;DHT22;8064;51.142;4.780;2022-09-24T08:28:04;14.80;99.90
15930;DHT22;8064;51.142;4.780;2022-09-24T08:30:31;14.80;99.90
15930;DHT22;8064;51.142;4.780;2022-09-24T08:32:58;14.80;99.90
15930;DHT22;8064;51.142;4.780;2022-09-24T08:35:25;14.80;99.90
15930;DHT22;8064;51.142;4.780;2022-09-24T08:37:53;14.80;99.90
15930;DHT22;8064;51.142;4.780;2022-09-24T08:40:23;14.80;99.90
15930;DHT22;8064;51.142;4.780;2022-09-24T08:45:43;14.80;99.90
15930;DHT22;8064;51.142;4.780;2022-09-24T08:48:32;14.80;99.90
15930;DHT22;8064;51.142;4.780;2022-09-24T08:51:02;14.80;99.90
15930;DHT22;8064;51.142;4.780;2022-09-24T08:56:10;14.90;99.90
15930;DHT22;8064;51.142;4.780;2022-09-24T08:59:29;14.90;99.90
15930;DHT22;8064;51.142;4.780;2022-09-24T09:09:58;15.10;99.90
15930;DHT22;8064;51.142;4.780;2022-09-24T09:12:52;15.10;99.90
15930;DHT22;8064;51.142;4.780;2022-09-24T09:15:23;15.10;99.90
15930;DHT22;8064;51.142;4.780;2022-09-24T09:18:12;15.10;99.90
15930;DHT22;8064;51.142;4.780;2022-09-24T09:20:44;15.10;99.90
15930;DHT22;8064;51.142;4.780;2022-09-24T09:23:19;15.20;99.90
15930;DHT22;8064;51.142;4.780;2022-09-24T09:25:55;15.20;99.90
15930;DHT22;8064;51.142;4.780;2022-09-24T09:28:21;15.20;99.90
15930;DHT22;8064;51.142;4.780;2022-09-24T09:30:59;15.20;99.90
15930;DHT22;8064;51.142;4.780;2022-09-24T09:33:42;15.20;99.90
15930;DHT22;8064;51.142;4.780;2022-09-24T09:41:43;15.20;99.90
15930;DHT22;8064;51.142;4.780;2022-09-24T09:44:21;15.20;99.90
15930;DHT22;8064;51.142;4.780;2022-09-24T09:49:26;15.10;99.90
15930;DHT22;8064;51.142;4.780;2022-09-24T09:51:57;15.20;99.90
15930;DHT22;8064;51.142;4.780;2022-09-24T09:54:35;15.20;99.90
15930;DHT22;8064;51.142;4.780;2022-09-24T09:57:02;15.20;99.90
15930;DHT22;8064;51.142;4.780;2022-09-24T09:59:28;15.20;99.90
15930;DHT22;8064;51.142;4.780;2022-09-24T10:01:55;15.20;99.90
15930;DHT22;8064;51.142;4.780;2022-09-24T10:06:50;15.10;99.90
15930;DHT22;8064;51.142;4.780;2022-09-24T10:09:17;15.10;99.90
15930;DHT22;8064;51.142;4.780;2022-09-24T10:11:47;15.10;99.90
15930;DHT22;8064;51.142;4.780;2022-09-24T10:14:15;15.10;99.90
15930;DHT22;8064;51.142;4.780;2022-09-24T10:16:48;15.10;99.90
15930;DHT22;8064;51.142;4.780;2022-09-24T10:19:22;15.10;99.90
15930;DHT22;8064;51.142;4.780;2022-09-24T10:21:50;15.10;99.90
15930;DHT22;8064;51.142;4.780;2022-09-24T10:24:24;15.10;99.90
15930;DHT22;8064;51.142;4.780;2022-09-24T10:26:50;15.10;99.90
15930;DHT22;8064;51.142;4.780;2022-09-24T10:29:21;15.10;99.90
15930;DHT22;8064;51.142;4.780;2022-09-24T10:32:17;15.10;99.90
15930;DHT22;8064;51.142;4.780;2022-09-24T10:35:40;15.10;99.90
15930;DHT22;8064;51.142;4.780;2022-09-24T10:38:12;15.10;99.90
15930;DHT22;8064;51.142;4.780;2022-09-24T10:40:39;15.00;99.90
15930;DHT22;8064;51.142;4.780;2022-09-24T10:43:06;15.00;99.90
15930;DHT22;8064;51.142;4.780;2022-09-24T10:46:04;15.10;99.90
15930;DHT22;8064;51.142;4.780;2022-09-24T10:51:38;15.10;99.90
15930;DHT22;8064;51.142;4.780;2022-09-24T10:56:54;15.10;99.90
15930;DHT22;8064;51.142;4.780;2022-09-24T11:00:02;15.10;99.90
15930;DHT22;8064;51.142;4.780;2022-09-24T11:05:14;15.10;99.90
15930;DHT22;8064;51.142;4.780;2022-09-24T11:08:03;15.10;99.90
15930;DHT22;8064;51.142;4.780;2022-09-24T11:11:08;15.10;99.90
15930;DHT22;8064;51.142;4.780;2022-09-24T11:13:53;15.10;99.90
15930;DHT22;8064;51.142;4.780;2022-09-24T11:16:27;15.00;99.90
15930;DHT22;8064;51.142;4.780;2022-09-24T11:22:09;15.00;99.90
15930;DHT22;8064;51.142;4.780;2022-09-24T11:44:17;14.90;99.90
15930;DHT22;8064;51.142;4.780;2022-09-24T11:50:34;14.90;99.90
15930;DHT22;8064;51.142;4.780;2022-09-24T11:56:02;14.90;99.90
15930;DHT22;8064;51.142;4.780;2022-09-24T11:58:34;14.90;99.90
15930;DHT22;8064;51.142;4.780;2022-09-24T12:01:28;14.90;99.90
15930;DHT22;8064;51.142;4.780;2022-09-24T12:04:24;14.90;99.90
15930;DHT22;8064;51.142;4.780;2022-09-24T12:06:53;14.90;99.90
15930;DHT22;8064;51.142;4.780;2022-09-24T12:11:57;14.90;99.90
15930;DHT22;8064;51.142;4.780;2022-09-24T12:14:42;14.90;99.90
15930;DHT22;8064;51.142;4.780;2022-09-24T12:17:20;14.90;99.90
15930;DHT22;8064;51.142;4.780;2022-09-24T12:20:05;14.90;99.90
15930;DHT22;8064;51.142;4.780;2022-09-24T12:22:35;14.90;99.90
15930;DHT22;8064;51.142;4.780;2022-09-24T12:25:02;14.90;99.90
15930;DHT22;8064;51.142;4.780;2022-09-24T12:27:33;14.90;99.90
15930;DHT22;8064;51.142;4.780;2022-09-24T12:30:43;14.90;99.90
15930;DHT22;8064;51.142;4.780;2022-09-24T12:33:56;14.90;99.90
15930;DHT22;8064;51.142;4.780;2022-09-24T12:36:36;14.90;99.90
15930;DHT22;8064;51.142;4.780;2022-09-24T12:39:12;14.90;99.90
15930;DHT22;8064;51.142;4.780;2022-09-24T12:41:48;14.90;99.90
15930;DHT22;8064;51.142;4.780;2022-09-24T12:44:23;14.90;99.90
15930;DHT22;8064;51.142;4.780;2022-09-24T12:46:55;14.90;99.90
15930;DHT22;8064;51.142;4.780;2022-09-24T12:51:48;14.90;99.90
15930;DHT22;8064;51.142;4.780;2022-09-24T12:56:51;14.90;99.90
15930;DHT22;8064;51.142;4.780;2022-09-24T12:59:24;14.90;99.90
15930;DHT22;8064;51.142;4.780;2022-09-24T13:01:51;14.80;99.90
15930;DHT22;8064;51.142;4.780;2022-09-24T13:06:44;14.90;99.90
15930;DHT22;8064;51.142;4.780;2022-09-24T13:09:34;15.00;99.90
15930;DHT22;8064;51.142;4.780;2022-09-24T13:14:33;15.00;99.90
15930;DHT22;8064;51.142;4.780;2022-09-24T13:17:04;15.00;99.90
15930;DHT22;8064;51.142;4.780;2022-09-24T13:19:40;15.00;99.90
15930;DHT22;8064;51.142;4.780;2022-09-24T13:24:49;14.90;99.90
15930;DHT22;8064;51.142;4.780;2022-09-24T13:32:41;15.00;99.90
15930;DHT22;8064;51.142;4.780;2022-09-24T13:35:14;15.00;99.90
15930;DHT22;8064;51.142;4.780;2022-09-24T13:37:46;14.90;99.90
15930;DHT22;8064;51.142;4.780;2022-09-24T13:40:27;14.90;99.90
15930;DHT22;8064;51.142;4.780;2022-09-24T13:43:11;14.90;99.90
15930;DHT22;8064;51.142;4.780;2022-09-24T13:45:41;14.90;99.90
15930;DHT22;8064;51.142;4.780;2022-09-24T13:48:35;14.80;99.90
15930;DHT22;8064;51.142;4.780;2022-09-24T13:51:09;14.80;99.90
15930;DHT22;8064;51.142;4.780;2022-09-24T13:53:40;14.80;99.90
15930;DHT22;8064;51.142;4.780;2022-09-24T13:56:17;14.80;99.90
15930;DHT22;8064;51.142;4.780;2022-09-24T13:58:43;14.70;99.90
15930;DHT22;8064;51.142;4.780;2022-09-24T14:01:19;14.80;99.90
15930;DHT22;8064;51.142;4.780;2022-09-24T14:04:19;14.70;99.90
15930;DHT22;8064;51.142;4.780;2022-09-24T14:06:48;14.70;99.90
15930;DHT22;8064;51.142;4.780;2022-09-24T14:09:28;14.70;99.90
15930;DHT22;8064;51.142;4.780;2022-09-24T14:12:13;14.70;99.90
15930;DHT22;8064;51.142;4.780;2022-09-24T14:14:53;14.70;99.90
15930;DHT22;8064;51.142;4.780;2022-09-24T14:17:23;14.70;99.90
15930;DHT22;8064;51.142;4.780;2022-09-24T14:19:54;14.70;99.90
15930;DHT22;8064;51.142;4.780;2022-09-24T14:22:25;14.70;99.90
15930;DHT22;8064;51.142;4.780;2022-09-24T14:27:27;14.60;99.90
15930;DHT22;8064;51.142;4.780;2022-09-24T14:29:54;14.60;99.90
15930;DHT22;8064;51.142;4.780;2022-09-24T14:32:30;14.60;99.90
15930;DHT22;8064;51.142;4.780;2022-09-24T14:34:59;14.60;99.90
15930;DHT22;8064;51.142;4.780;2022-09-24T14:37:31;14.60;99.90
15930;DHT22;8064;51.142;4.780;2022-09-24T14:42:45;14.60;99.90
15930;DHT22;8064;51.142;4.780;2022-09-24T14:45:23;14.60;99.90
15930;DHT22;8064;51.142;4.780;2022-09-24T14:48:02;14.70;99.90
15930;DHT22;8064;51.142;4.780;2022-09-24T14:53:00;14.70;99.90
15930;DHT22;8064;51.142;4.780;2022-09-24T14:55:40;14.70;99.90
15930;DHT22;8064;51.142;4.780;2022-09-24T14:58:31;14.80;99.90
15930;DHT22;8064;51.142;4.780;2022-09-24T15:01:00;14.80;99.90
15930;DHT22;8064;51.142;4.780;2022-09-24T15:03:47;14.80;99.90
15930;DHT22;8064;51.142;4.780;2022-09-24T15:06:22;14.90;99.90
15930;DHT22;8064;51.142;4.780;2022-09-24T15:11:24;14.90;99.90
15930;DHT22;8064;51.142;4.780;2022-09-24T15:16:34;15.00;99.90
15930;DHT22;8064;51.142;4.780;2022-09-24T15:21:32;15.00;99.90
15930;DHT22;8064;51.142;4.780;2022-09-24T15:23:58;15.00;99.90
15930;DHT22;8064;51.142;4.780;2022-09-24T15:26:28;15.10;99.90
15930;DHT22;8064;51.142;4.780;2022-09-24T15:28:56;15.10;99.90
15930;DHT22;8064;51.142;4.780;2022-09-24T15:31:23;15.10;99.90
15930;DHT22;8064;51.142;4.780;2022-09-24T15:33:49;15.10;99.90
15930;DHT22;8064;51.142;4.780;2022-09-24T15:36:15;15.20;99.90
15930;DHT22;8064;51.142;4.780;2022-09-24T15:38:46;15.20;99.90
15930;DHT22;8064;51.142;4.780;2022-09-24T15:41:12;15.20;99.90
15930;DHT22;8064;51.142;4.780;2022-09-24T15:43:38;15.20;99.90
15930;DHT22;8064;51.142;4.780;2022-09-24T15:46:04;15.20;99.90
15930;DHT22;8064;51.142;4.780;2022-09-24T15:48:29;15.20;99.90
15930;DHT22;8064;51.142;4.780;2022-09-24T15:50:55;15.20;99.90
15930;DHT22;8064;51.142;4.780;2022-09-24T15:53:25;15.30;99.90
15930;DHT22;8064;51.142;4.780;2022-09-24T15:55:57;15.30;99.90
15930;DHT22;8064;51.142;4.780;2022-09-24T15:58:23;15.30;99.90
15930;DHT22;8064;51.142;4.780;2022-09-24T16:00:49;15.30;99.90
15930;DHT22;8064;51.142;4.780;2022-09-24T16:03:20;15.30;99.90
15930;DHT22;8064;51.142;4.780;2022-09-24T16:05:47;15.30;99.90
15930;DHT22;8064;51.142;4.780;2022-09-24T16:08:13;15.30;99.90
15930;DHT22;8064;51.142;4.780;2022-09-24T16:10:39;15.30;99.90
15930;DHT22;8064;51.142;4.780;2022-09-24T16:13:05;15.30;99.90
15930;DHT22;8064;51.142;4.780;2022-09-24T16:15:33;15.30;99.90
15930;DHT22;8064;51.142;4.780;2022-09-24T16:17:59;15.30;99.90
15930;DHT22;8064;51.142;4.780;2022-09-24T16:20:24;15.30;99.90
15930;DHT22;8064;51.142;4.780;2022-09-24T16:22:50;15.30;99.90
15930;DHT22;8064;51.142;4.780;2022-09-24T16:25:16;15.30;99.90
15930;DHT22;8064;51.142;4.780;2022-09-24T16:27:42;15.30;99.90
15930;DHT22;8064;51.142;4.780;2022-09-24T16:30:09;15.30;99.90
15930;DHT22;8064;51.142;4.780;2022-09-24T16:32:35;15.30;99.90
15930;DHT22;8064;51.142;4.780;2022-09-24T16:35:00;15.30;99.90
15930;DHT22;8064;51.142;4.780;2022-09-24T16:37:26;15.30;99.90
15930;DHT22;8064;51.142;4.780;2022-09-24T16:39:52;15.30;99.90
15930;DHT22;8064;51.142;4.780;2022-09-24T16:42:18;15.30;99.90
15930;DHT22;8064;51.142;4.780;2022-09-24T16:44:43;15.30;99.90
15930;DHT22;8064;51.142;4.780;2022-09-24T16:47:09;15.30;99.90
15930;DHT22;8064;51.142;4.780;2022-09-24T16:49:35;15.30;99.90
15930;DHT22;8064;51.142;4.780;2022-09-24T16:52:01;15.30;99.90
15930;DHT22;8064;51.142;4.780;2022-09-24T16:54:27;15.30;99.90
15930;DHT22;8064;51.142;4.780;2022-09-24T16:56:57;15.30;99.90
15930;DHT22;8064;51.142;4.780;2022-09-24T16:59:23;15.20;99.90
15930;DHT22;8064;51.142;4.780;2022-09-24T17:01:49;15.20;99.90
15930;DHT22;8064;51.142;4.780;2022-09-24T17:04:15;15.20;99.90
15930;DHT22;8064;51.142;4.780;2022-09-24T17:06:41;15.20;99.90
15930;DHT22;8064;51.142;4.780;2022-09-24T17:09:10;15.20;99.90
15930;DHT22;8064;51.142;4.780;2022-09-24T17:11:54;15.20;99.90
15930;DHT22;8064;51.142;4.780;2022-09-24T17:14:21;15.20;99.90
15930;DHT22;8064;51.142;4.780;2022-09-24T17:16:47;15.20;99.90
15930;DHT22;8064;51.142;4.780;2022-09-24T17:19:13;15.10;99.90
15930;DHT22;8064;51.142;4.780;2022-09-24T17:21:42;15.10;99.90
15930;DHT22;8064;51.142;4.780;2022-09-24T17:24:10;15.10;99.90
15930;DHT22;8064;51.142;4.780;2022-09-24T17:26:37;15.10;99.90
15930;DHT22;8064;51.142;4.780;2022-09-24T17:29:02;15.10;99.90
15930;DHT22;8064;51.142;4.780;2022-09-24T17:31:29;15.10;99.90
15930;DHT22;8064;51.142;4.780;2022-09-24T17:34:03;15.00;99.90
15930;DHT22;8064;51.142;4.780;2022-09-24T17:36:31;15.00;99.90
15930;DHT22;8064;51.142;4.780;2022-09-24T17:38:57;15.00;99.90
15930;DHT22;8064;51.142;4.780;2022-09-24T17:41:27;15.00;99.90
15930;DHT22;8064;51.142;4.780;2022-09-24T17:43:54;15.00;99.90
15930;DHT22;8064;51.142;4.780;2022-09-24T17:46:27;15.00;99.90
15930;DHT22;8064;51.142;4.780;2022-09-24T17:48:55;15.00;99.90
15930;DHT22;8064;51.142;4.780;2022-09-24T17:51:23;15.00;99.90
15930;DHT22;8064;51.142;4.780;2022-09-24T17:53:50;15.00;99.90
15930;DHT22;8064;51.142;4.780;2022-09-24T17:56:19;15.00;99.90
15930;DHT22;8064;51.142;4.780;2022-09-24T17:58:46;15.00;99.90
15930;DHT22;8064;51.142;4.780;2022-09-24T18:01:14;14.90;99.90
15930;DHT22;8064;51.142;4.780;2022-09-24T18:03:41;14.90;99.90
15930;DHT22;8064;51.142;4.780;2022-09-24T18:06:10;14.90;99.90
15930;DHT22;8064;51.142;4.780;2022-09-24T18:08:41;14.90;99.90